フランクフルト国際空港の過去48時間の天気

フランクフルト国際空港 (Frankfurt / M-Flughafen)

現在時刻: 9/28 11:40 CEST (9/28 09:40 UTC) 以下の時間は現地時間です。

過去48時間のMETAR気象情報
時間 風向 風速(m/s) 視程 気温(℃) 湿度(%) 気圧(hPa) 天気現象
28 11:20 南南西 3 10km以上 12 71 1011
28 10:50 南南西 3 10km以上 11 76 1011
28 10:20 南西 2 10km以上 12 71 1011
28 09:50 南南西 2 10km以上 11 76 1011
28 09:20 2 10km以上 10 82 1010
28 08:50 南南西 2 10km以上 9 87 1010
28 08:20 不定 1 10km以上 9 87 1010
28 07:50 不定 1 10km以上 6 93 1010
28 07:20 不定 1 10km以上 5 100 1010
28 06:50 西 1 10km以上 6 93 1010
28 06:20 不定 1 10km以上 6 93 1010
28 05:50 西南西 1 10km以上 6 93 1009
28 05:20 不定 1 10km以上 6 93 1009
28 04:50 西南西 1 10km以上 6 100 1009
28 04:20 不定 1 10km以上 6 100 1009
28 03:50 不定 1 10km以上 7 93 1009
28 03:20 不定 1 10km以上 7 93 1009
28 02:50 不定 1 10km以上 7 93 1009
28 02:20 1 10km以上 8 93 1008
28 01:50 西北西 1 10km以上 8 100 1008
28 01:20 西 1 10km以上 10 87 1009
28 00:50 不定 1 10km以上 10 94 1009
28 00:20 南東 2 10km以上 10 94 1009
27 23:50 南東 2 10km以上 11 87 1009
27 23:20 南東 2 10km以上 11 87 1008
27 22:50 南東 3 10km以上 11 87 1008
27 22:20 南東 2 10km以上 11 87 1008
27 21:50 南東 2 10km以上 11 87 1008
27 21:20 南東 2 10km以上 11 87 1008
27 20:50 南東 2 10km以上 11 87 1007
27 20:20 2 10km以上 11 87 1007
27 19:50 東南東 1 10km以上 11 87 1007
27 19:20 不定 1 10km以上 12 82 1007
27 18:50 不定 1 10km以上 12 77 1006
27 18:20 2 10km以上 12 77 1006
27 17:50 南東 2 10km以上 12 71 1006
27 17:20 不定 1 10km以上 13 67 1005
27 16:50 南東 2 10km以上 13 67 1005
27 16:20 南南東 3 10km以上 12 71 1005
27 15:50 南東 3 10km以上 12 71 1004
27 15:20 南東 4 10km以上 12 71 1004
27 14:50 南南東 4 10km以上 13 67 1004
27 14:20 南南東 3 10km以上 13 67 1004
27 13:50 3 10km以上 12 77 1003
27 13:20 南南東 5 10km以上 12 77 1003
27 12:50 南南東 4 10km以上 12 77 1003
27 12:20 南南東 4 10km以上 12 77 1003
27 11:50 南南東 4 10km以上 11 82 1002
27 11:20 5 10km以上 11 82 1002
27 10:50 南南東 4 10km以上 10 94 1001
27 10:20 4 10km以上 10 87 1001 弱い霧雨
27 09:50 5 10km以上 9 93 1000 弱い霧雨
27 09:20 5 10km以上 9 93 999
27 08:50 5 10km以上 9 93 999
27 08:20 5 6000m 9 93 999 弱い雨 弱い霧雨
27 07:50 南南東 5 7000m 9 93 998 弱い雨 弱い霧雨
27 07:20 南南東 5 10km以上 9 93 998 弱い雨 弱い霧雨
27 06:50 南南東 5 7000m 9 93 997 弱い雨 弱い霧雨
27 06:20 南南東 5 7000m 9 93 997 弱い雨 弱い霧雨
27 05:50 4 10km以上 9 93 997 弱い雨 弱い霧雨
27 05:20 南南東 4 10km以上 8 100 997 弱い雨
27 04:50 南南東 4 10km以上 8 93 997 弱い雨
27 04:20 4 10km以上 8 93 998 弱い雨
27 03:50 3 10km以上 8 93 997 弱い雨
27 03:20 南南西 4 10km以上 8 100 998 弱い雨
27 02:50 南南西 4 10km以上 9 93 998 弱い雨
27 02:20 南南西 3 9000m 9 93 998
27 01:50 南西 4 10km以上 9 93 998
27 01:20 南西 4 10km以上 9 93 998 弱い雨
27 00:50 南西 3 10km以上 9 93 998 弱い雨
27 00:20 南西 3 10km以上 9 93 998 弱い雨
26 23:50 西 4 10km以上 10 87 998 弱い雨
26 23:20 西南西 3 7000m 10 94 998 弱い雨
26 22:50 西南西 4 8000m 10 94 999 弱い雨
26 22:20 西南西 3 8000m 10 94 999 弱い雨
26 21:50 西南西 3 9000m 10 94 998 弱い雨
26 21:20 西南西 4 7000m 10 94 998
26 20:50 西南西 4 9000m 10 94 999
26 20:20 西南西 4 7000m 10 94 998
26 19:50 西南西 2 6000m 10 94 999 しゅう雨
26 19:20 不定 2 6000m 10 94 998 しゅう雨
26 18:50 西北西 3 6000m 11 87 998 しゅう雨
26 18:20 北北西 2 7000m 11 87 998 しゅう雨
26 17:50 西 7 7000m 11 87 997 しゅう雨
26 17:20 西 7 10km以上 12 82 997 弱いしゅう雨
26 16:50 西 6 10km以上 12 82 997 周辺でしゅう雨
26 16:20 西南西 4 10km以上 12 88 997 弱いしゅう雨
26 15:50 西南西 4 10km以上 12 82 997 弱いしゅう雨
26 15:20 西南西 5 7000m 11 94 997 しゅう雨
26 14:50 西 6 10km以上 12 77 997 弱いしゅう雨
26 14:20 西南西 6 10km以上 13 72 997 弱いしゅう雨
26 13:50 西南西 5 10km以上 13 67 997
26 13:20 南西 3 10km以上 12 77 997 弱い雨
26 12:50 南西 7 10km以上 12 77 997 弱い雨 弱い霧雨
26 12:20 南西 5 10km以上 12 77 997
26 11:50 南西 4 10km以上 12 71 997 弱い雨 弱い霧雨
EDDF 280920Z 21005KT 190V250 9999 FEW016 12/07 Q1011 NOSIG
EDDF 280850Z 21006KT 9999 FEW016 11/07 Q1011 NOSIG
EDDF 280820Z 22004KT 170V280 9999 FEW006 12/07 Q1011 NOSIG
EDDF 280750Z 21004KT 160V260 9999 FEW006 11/07 Q1011 NOSIG
EDDF 280720Z 19003KT 170V230 9999 FEW006 10/07 Q1010 NOSIG
EDDF 280650Z 20003KT 160V250 9999 FEW005 09/07 Q1010 NOSIG
EDDF 280620Z VRB01KT 9999 FEW004 09/07 Q1010 NOSIG
EDDF 280550Z VRB01KT 9999 FEW003 06/05 Q1010 NOSIG
EDDF 280520Z VRB02KT 9999 FEW003 05/05 Q1010 NOSIG
EDDF 280450Z 26002KT CAVOK 06/05 Q1010 NOSIG
EDDF 280420Z VRB02KT CAVOK 06/05 Q1010 NOSIG
EDDF 280350Z 24002KT CAVOK 06/05 Q1009 NOSIG
EDDF 280320Z VRB01KT CAVOK 06/05 Q1009 NOSIG
EDDF 280250Z 25002KT CAVOK 06/06 Q1009 NOSIG
EDDF 280220Z VRB02KT CAVOK 06/06 Q1009 NOSIG
EDDF 280150Z VRB01KT CAVOK 07/06 Q1009 NOSIG
EDDF 280120Z VRB01KT CAVOK 07/06 Q1009 NOSIG
EDDF 280050Z VRB01KT 9999 FEW047 07/06 Q1009 NOSIG
EDDF 280020Z 17002KT 9999 FEW047 08/07 Q1008 NOSIG
EDDF 272350Z 29002KT 9999 SCT049 08/08 Q1008 NOSIG
EDDF 272320Z 26002KT 9999 BKN049 10/08 Q1009 NOSIG
EDDF 272250Z VRB02KT 9999 BKN049 10/09 Q1009 NOSIG
EDDF 272220Z 14003KT 9999 BKN049 10/09 Q1009 NOSIG
EDDF 272150Z 14004KT CAVOK 11/09 Q1009 NOSIG
EDDF 272120Z 14004KT CAVOK 11/09 Q1008 NOSIG
EDDF 272050Z 14005KT CAVOK 11/09 Q1008 NOSIG
EDDF 272020Z 14003KT 9999 BKN048 11/09 Q1008 NOSIG
EDDF 271950Z 14003KT 9999 BKN048 11/09 Q1008 NOSIG
EDDF 271920Z 13003KT 9999 BKN048 11/09 Q1008 NOSIG
EDDF 271850Z 13003KT 100V180 9999 FEW020 BKN048 11/09 Q1007 NOSIG
EDDF 271820Z 08003KT 050V130 9999 FEW020 BKN048 11/09 Q1007 NOSIG
EDDF 271750Z 12002KT 9999 FEW020 BKN048 11/09 Q1007 NOSIG
EDDF 271720Z VRB01KT 9999 FEW020 BKN046 12/09 Q1007 NOSIG
EDDF 271650Z VRB02KT 9999 FEW020 BKN046 12/08 Q1006 NOSIG
EDDF 271620Z 10003KT 050V160 9999 FEW020 BKN046 12/08 Q1006 NOSIG
EDDF 271550Z 13003KT 100V170 9999 FEW018 BKN046 12/07 Q1006 NOSIG
EDDF 271520Z VRB02KT 9999 FEW018 SCT024 BKN046 13/07 Q1005 NOSIG
EDDF 271450Z 14003KT 050V180 9999 FEW018 SCT024 BKN046 13/07 Q1005 NOSIG
EDDF 271420Z 15005KT 9999 FEW018 SCT024 BKN048 12/07 Q1005 NOSIG
EDDF 271350Z 14006KT 9999 FEW018 SCT024 BKN040 12/07 Q1004 NOSIG
EDDF 271320Z 14007KT 110V170 9999 FEW018 SCT024 BKN039 12/07 Q1004 NOSIG
EDDF 271250Z 15007KT 130V190 9999 FEW018 SCT024 BKN039 13/07 Q1004 NOSIG
EDDF 271220Z 15006KT 110V200 9999 FEW018 SCT021 BKN048 13/07 Q1004 NOSIG
EDDF 271150Z 17006KT 9999 FEW018 SCT021 BKN040 12/08 Q1003 NOSIG
EDDF 271120Z 16009KT 9999 FEW012 SCT018 BKN035 12/08 Q1003 NOSIG
EDDF 271050Z 15007KT 9999 FEW012 SCT018 BKN032 12/08 Q1003 NOSIG
EDDF 271020Z 15008KT 120V180 9999 FEW009 SCT015 BKN028 12/08 Q1003 NOSIG
EDDF 270950Z 16008KT 9999 FEW008 SCT013 BKN025 11/08 Q1002 NOSIG
EDDF 270920Z 17009KT 9999 FEW007 SCT011 BKN036 11/08 Q1002 NOSIG
EDDF 270850Z 16008KT 130V190 9999 FEW007 BKN011 BKN030 10/09 Q1001 BECMG SCT011
EDDF 270820Z 17008KT 130V200 9999 -DZ FEW004 SCT007 BKN010 10/08 Q1001 BECMG SCT010 BKN025
EDDF 270750Z 17010KT 9999 -DZ FEW004 BKN009 BKN023 09/08 Q1000 NOSIG
EDDF 270720Z 17010KT 9999 FEW004 BKN008 BKN023 09/08 Q0999 NOSIG
EDDF 270650Z 17010KT 9999 FEW004 BKN008 BKN022 09/08 Q0999 NOSIG
EDDF 270620Z 17010KT 140V200 6000 -RADZ FEW004 BKN009 BKN022 09/08 Q0999 NOSIG
EDDF 270550Z 16010KT 130V190 7000 -RADZ FEW003 BKN009 BKN023 09/08 Q0998 NOSIG
EDDF 270520Z 16009KT 9999 -RADZ FEW003 BKN007 BKN020 09/08 Q0998 NOSIG
EDDF 270450Z 15010KT 7000 -RADZ FEW003 SCT007 BKN020 09/08 Q0997 TEMPO BKN007
EDDF 270420Z 16009KT 7000 -RADZ FEW003 BKN007 BKN029 09/08 Q0997 NOSIG
EDDF 270350Z 17008KT 140V200 9999 -RADZ FEW003 BKN007 BKN033 09/08 Q0997 NOSIG
EDDF 270320Z 16008KT 9999 -RA FEW004 SCT016 BKN023 08/08 Q0997 NOSIG
EDDF 270250Z 16008KT 9999 -RA FEW004 SCT021 BKN025 08/07 Q0997 NOSIG
EDDF 270220Z 17007KT 9999 -RA FEW003 SCT019 BKN027 08/07 Q0998 NOSIG
EDDF 270150Z 18006KT 9999 -RA FEW004 BKN026 BKN040 08/07 Q0997 NOSIG
EDDF 270120Z 20008KT 9999 -RA FEW004 BKN044 08/08 Q0998 NOSIG
EDDF 270050Z 20008KT 9999 -RA FEW003 SCT010 BKN018 09/08 Q0998 RERA TEMPO BKN014
EDDF 270020Z 21006KT 9000 RA FEW003 SCT015 BKN018 09/08 Q0998 TEMPO BKN014
EDDF 262350Z 23007KT 9999 RA FEW004 OVC035 09/08 Q0998 TEMPO -RA
EDDF 262320Z 23007KT 9999 -RA FEW004 BKN039 09/08 Q0998 TEMPO RA
EDDF 262250Z 22005KT 9999 -RA FEW004 SCT021 BKN040 09/08 Q0998 TEMPO RA
EDDF 262220Z 22005KT 9999 -RA FEW007 BKN045 09/08 Q0998 TEMPO RA
EDDF 262150Z 26007KT 9999 -RA FEW004 BKN038 10/08 Q0998 TEMPO RA
EDDF 262120Z 25005KT 7000 -RA FEW004 SCT032 BKN042 10/09 Q0998 TEMPO RA
EDDF 262050Z 24007KT 230V290 8000 -RA FEW003 SCT016 BKN039 10/09 Q0999 TEMPO RA
EDDF 262020Z 24006KT 8000 -RA FEW007 SCT016 BKN043 10/09 Q0999 TEMPO RA
EDDF 261950Z 24006KT 9000 -RA FEW007 BKN018 BKN043 10/09 Q0998 RERA TEMPO RA
EDDF 261920Z 24007KT 7000 RA FEW006 SCT017 BKN044 10/09 Q0998 TEMPO NSW
EDDF 261850Z 25007KT 9000 RA FEW006 SCT017 BKN023 10/09 Q0999 TEMPO NSW
EDDF 261820Z 25007KT 220V280 7000 RA FEW004 SCT017 BKN022 10/09 Q0998 TEMPO NSW
EDDF 261750Z 24004KT 170V280 6000 SHRA FEW005 SCT015CB BKN022 10/09 Q0999 BECMG NSW
EDDF 261720Z VRB04G16KT 6000 SHRA FEW005 SCT015CB BKN020 10/09 Q0998 BECMG NSW
EDDF 261650Z 29005KT 260V320 6000 SHRA FEW005 SCT015CB BKN022 11/09 Q0998 TEMPO 4000 NSW
EDDF 261620Z 33003KT 260V040 7000 SHRA FEW005 SCT015CB BKN022 11/09 Q0998 TEMPO 4000
EDDF 261550Z 27014KT 7000 SHRA FEW005 SCT015CB BKN022 11/09 Q0997 TEMPO 4000
EDDF 261520Z 26014KT 9999 -SHRA FEW008 FEW015CB BKN022 BKN035 12/09 Q0997 TEMPO 4000 SHRA
EDDF 261450Z 26012KT 9999 VCSH FEW008 FEW015CB BKN022 BKN038 12/09 Q0997 NOSIG
EDDF 261420Z 25008KT 9999 -SHRA FEW006 FEW015CB SCT022 BKN045 12/10 Q0997 RESHRA NOSIG
EDDF 261350Z 25007KT 220V320 9999 -SHRA FEW009 FEW015CB SCT020 BKN028 12/09 Q0997 RESHRA NOSIG
EDDF 261320Z 25009KT 7000 SHRA FEW009 SCT015CB BKN028 11/10 Q0997 BECMG NSW
EDDF 261250Z 26012G24KT 230V290 9999 -SHRA FEW010 FEW020CB SCT024 BKN038 12/08 Q0997 NOSIG
EDDF 261220Z 25011KT 9999 -SHRA FEW010 FEW020CB SCT024 BKN045 13/08 Q0997 NOSIG
EDDF 261150Z 25010KT 210V280 9999 FEW010 SCT022 BKN030 13/07 Q0997 TEMPO 4000 SHRA
EDDF 261120Z 23006KT 9999 -RA FEW008 SCT024 BKN032 12/08 Q0997 TEMPO 4000 SHRA
EDDF 261050Z 23013KT 210V270 9999 -RADZ FEW008 BKN021 BKN029 12/08 Q0997 TEMPO 4000
EDDF 261020Z 22010KT 9999 FEW008 SCT024 BKN031 12/08 Q0997 NOSIG
EDDF 260950Z 23007KT 200V260 9999 -RADZ FEW011 BKN024 12/07 Q0997 NOSIG